createdAt,value
2022-11-16T12:58:20.619Z,15296.00
2022-11-16T12:59:22.585Z,10300.00
2022-11-16T13:00:21.540Z,8840.00
2022-11-16T13:01:21.624Z,9960.00
2022-11-16T13:02:21.798Z,16224.00
2022-11-16T13:03:21.680Z,19008.00
2022-11-16T13:04:21.499Z,19136.00
2022-11-16T13:05:21.475Z,19264.00
2022-11-16T13:06:21.612Z,16992.00
2022-11-16T13:07:21.519Z,29280.00
2022-11-16T13:08:21.439Z,39744.00
2022-11-16T13:09:21.445Z,38752.00
2022-11-16T13:10:21.446Z,20800.00
2022-11-16T13:11:21.410Z,10004.00
2022-11-16T13:12:21.389Z,9344.00
2022-11-16T13:13:35.836Z,11280.00
2022-11-16T13:14:23.486Z,16832.00
2022-11-16T13:15:21.358Z,17792.00
2022-11-16T13:16:21.488Z,25120.00
2022-11-16T13:17:21.481Z,28416.00
2022-11-16T13:18:21.334Z,14176.00
2022-11-16T13:19:21.316Z,17888.00
2022-11-16T13:20:21.361Z,21472.00
2022-11-16T13:21:21.299Z,13428.00
2022-11-16T13:22:21.291Z,9620.00
2022-11-16T13:23:21.268Z,6632.00
2022-11-16T13:24:21.261Z,6100.00
2022-11-16T13:25:21.311Z,6064.00
2022-11-16T13:26:22.233Z,5416.00
2022-11-16T13:27:21.226Z,5708.00
2022-11-16T13:28:21.214Z,6496.00
2022-11-16T13:29:21.201Z,7104.00
2022-11-16T13:30:21.200Z,6580.00
2022-11-16T13:31:21.196Z,6688.00
2022-11-16T13:32:21.167Z,5948.00
2022-11-16T13:33:21.160Z,5968.00
2022-11-16T13:34:21.168Z,6604.00
2022-11-16T13:35:21.131Z,7996.00
2022-11-16T13:36:21.160Z,7496.00
2022-11-16T13:37:21.110Z,6288.00
2022-11-16T13:38:21.117Z,5832.00
2022-11-16T13:39:22.829Z,5768.00
2022-11-16T13:40:22.076Z,6344.00
2022-11-16T13:41:21.264Z,7704.00
2022-11-16T13:42:21.056Z,9824.00
2022-11-16T13:43:21.077Z,13192.00
2022-11-16T13:44:21.041Z,16608.00
2022-11-16T13:45:21.011Z,18592.00
2022-11-16T13:46:53.695Z,28416.00
2022-11-16T13:47:23.035Z,28096.00
2022-11-16T13:48:20.985Z,16800.00
2022-11-16T13:49:20.976Z,13440.00
2022-11-16T13:50:20.976Z,16640.00
2022-11-16T13:51:20.953Z,24512.00
2022-11-16T13:52:24.058Z,29504.00
2022-11-16T13:54:47.244Z,21376.00
2022-11-16T13:55:22.923Z,16832.00
2022-11-16T13:56:25.597Z,12960.00
